Friendly reminder: Now is a great time to change your password. Learn more

Runnning Room

Summer Race on the Islands/Course dete des Isles 2012
5 km marche/walk

Results

Rank Clock Time Pace/km Chip Time/km Bib First Name Last Name City Gender Division Gender Rank Division Rank
1 25:54.0 5:11 25:50.7 5983 Aldo Josue MORENO BUENO Mtl M M---19 1/9 1/5
2 31:33.2 6:19 31:19.5 6086 Zachary VALLIERES Mon M M---19 2/9 2/5
3 35:24.0 7:05 35:10.2 6085 Arianne VALLIERES Mon F F---19 1/12 1/4
4 42:33.6 8:31 40:43.9 5743 Marjorie BROCHU Bel F F---19 2/12 2/4
5 44:07.8 8:50 42:18.5 5742 Laurent BROCHU Bel M M---19 3/9 3/5
6 46:37.8 9:20 46:28.8 5690 Gisele BACON Bou F F60-69 3/12 1/3
7 49:07.6 9:50 48:49.2 5916 Pierrette LABERGE Bou F F60-69 4/12 2/3
8 49:20.7 9:53 47:32.0 5853 Alain GAGNON Mon M M50-59 4/9 1/2
9 50:38.5 10:08 48:47.2 5855 Sylvie GAGNON Lon F F50-59 5/12 1/2
10 51:39.4 10:20 49:49.3 5741 Corinne BROCHU Bel F F---19 6/12 3/4
11 52:13.6 10:27 50:23.3 5715 Claudette BILODEAU Mon F F60-69 7/12 3/3
12 54:34.6 10:55 54:14.8 5914 Jean LABERGE Bou M M60-69 5/9 1/2
13 54:45.2 10:58 52:58.7 6072 Sophie THERRIEN St F F40-49 8/12 1/3
14 54:45.3 10:58 52:59.1 5950 Lynda LEBEL Cha F F40-49 9/12 2/3
15 55:12.2 11:03 53:25.7 5913 Laura KRIEF Mon F F---19 10/12 4/4
16 55:12.7 11:03 53:24.3 5812 Sylvie DESJARDINS Mon F F50-59 11/12 2/2
17 56:34.3 11:19 54:33.2 5993 Maxime NAND EMERY Mtl M M---19 6/9 4/5
18 58:09.6 11:38 56:07.6 5882 Marc-Andre GRAND-CHAMPS CESAR Mtl M M---19 7/9 5/5
19 1:01:48.1 12:22 59:49.0 5843 Anthony FEIST Mtl M M60-69 8/9 2/2
20 1:01:48.6 12:22 59:49.2 5752 Francois CARON Mtl M M50-59 9/9 2/2
21 1:01:48.7 12:22 59:45.5 5930 Christine LAMARRE Nap F F40-49 12/12 3/3

Results by: Sport Stats
www.sportstats.ca

Main Areas